Time;durP1;ratioP1;P1;durP2;ratioP2;P2;SDS_P1;SDS_P2;PMS_P1;PMS_P2;Temp;Humidity;BMP_temperature;BMP_pressure;BME280_temperature;BME280_humidity;BME280_pressure;Samples;Min_cycle;Max_cycle;Signal;HPM_P1;HPM_P2
2021/05/12 00:00:34;;;;;;;9.90;9.00;;;16.30;1.00;;;;;;5120491;27;21002;-77
2021/05/12 00:03:00;;;;;;;10.43;9.53;;;16.30;1.00;;;;;;5117036;27;20495;-76
2021/05/12 00:05:27;;;;;;;8.97;8.17;;;16.30;1.00;;;;;;5117330;27;20449;-77
2021/05/12 00:07:53;;;;;;;9.07;8.27;;;16.30;1.00;;;;;;5114095;27;20541;-76
2021/05/12 00:10:21;;;;;;;10.40;9.60;;;16.30;1.00;;;;;;5117330;27;20575;-78
2021/05/12 00:12:47;;;;;;;11.27;10.37;;;16.40;1.00;;;;;;5120539;27;20853;-77
2021/05/12 00:15:16;;;;;;;15.10;13.80;;;16.40;1.00;;;;;;5114495;27;20868;-76
2021/05/12 00:17:46;;;;;;;16.33;14.90;;;16.40;1.00;;;;;;5119634;27;21124;-76
2021/05/12 00:20:16;;;;;;;16.53;15.00;;;16.40;1.00;;;;;;5111362;27;20461;-79
2021/05/12 00:22:47;;;;;;;15.57;14.33;;;16.40;1.00;;;;;;5116239;27;20507;-77
2021/05/12 00:25:14;;;;;;;16.07;14.77;;;16.40;1.00;;;;;;5112273;27;20948;-76
2021/05/12 00:27:40;;;;;;;13.90;12.70;;;16.40;1.00;;;;;;5124059;27;20459;-76
2021/05/12 00:30:10;;;;;;;13.97;12.80;;;16.30;1.00;;;;;;5114661;27;20576;-77
2021/05/12 00:32:37;;;;;;;11.73;10.73;;;16.40;1.00;;;;;;5117180;27;20898;-77
2021/05/12 00:35:05;;;;;;;10.50;9.60;;;16.30;1.00;;;;;;5111823;27;20442;-76
2021/05/12 00:37:47;;;;;;;11.30;10.30;;;16.20;1.00;;;;;;5108346;27;21401;-76
2021/05/12 00:40:15;;;;;;;10.47;9.53;;;16.30;1.00;;;;;;5109523;27;20498;-78
2021/05/12 00:42:42;;;;;;;12.50;11.43;;;16.30;1.00;;;;;;5112136;27;20501;-76
2021/05/12 00:45:12;;;;;;;14.17;12.87;;;16.30;1.00;;;;;;5110859;27;21897;-77
2021/05/12 00:47:39;;;;;;;15.70;14.30;;;16.20;1.00;;;;;;5113693;27;20411;-76
2021/05/12 00:50:08;;;;;;;15.10;13.80;;;16.20;1.00;;;;;;5112494;27;20990;-77
2021/05/12 00:52:34;;;;;;;14.37;13.07;;;16.10;1.00;;;;;;5115729;27;20495;-78
2021/05/12 00:55:01;;;;;;;14.03;12.93;;;16.10;1.00;;;;;;5121649;27;20502;-77
2021/05/12 00:57:27;;;;;;;14.70;13.40;;;16.00;1.00;;;;;;5118584;27;21746;-77
2021/05/12 00:59:53;;;;;;;14.20;12.97;;;16.00;1.00;;;;;;5125468;27;20466;-77
2021/05/12 01:02:20;;;;;;;14.53;13.07;;;16.00;1.00;;;;;;5129060;27;21363;-77
2021/05/12 01:04:47;;;;;;;14.73;13.33;;;16.00;1.00;;;;;;5123657;27;20466;-77
2021/05/12 01:07:14;;;;;;;13.03;11.63;;;16.00;1.00;;;;;;5112388;27;20457;-76
2021/05/12 01:09:40;;;;;;;13.97;12.60;;;16.00;1.00;;;;;;5110441;27;20454;-77
2021/05/12 01:12:07;;;;;;;13.83;12.43;;;16.00;1.00;;;;;;5109938;27;21162;-75
2021/05/12 01:14:34;;;;;;;13.33;12.13;;;15.90;1.00;;;;;;5111464;27;20532;-76
2021/05/12 01:17:00;;;;;;;14.30;12.20;;;15.80;1.00;;;;;;5112348;27;20498;-75
2021/05/12 01:19:27;;;;;;;11.93;10.83;;;15.70;1.00;;;;;;5130623;27;20475;-76
2021/05/12 01:21:54;;;;;;;13.63;11.90;;;15.60;1.00;;;;;;5122733;27;20541;-77
2021/05/12 01:24:22;;;;;;;12.70;10.80;;;15.60;1.00;;;;;;5114696;27;20432;-78
2021/05/12 01:26:50;;;;;;;12.80;11.50;;;15.50;1.00;;;;;;5114421;27;20425;-76
2021/05/12 01:29:16;;;;;;;10.70;9.80;;;15.50;1.00;;;;;;5117059;27;20643;-77
2021/05/12 01:31:43;;;;;;;10.70;9.60;;;15.40;1.00;;;;;;5118179;27;21807;-76
2021/05/12 01:34:13;;;;;;;10.80;9.90;;;15.40;1.00;;;;;;5110830;27;21161;-77
2021/05/12 01:36:43;;;;;;;10.70;9.70;;;15.30;1.00;;;;;;5112322;27;20972;-76
2021/05/12 01:39:11;;;;;;;10.43;9.43;;;15.40;1.00;;;;;;5110381;27;20450;-77
2021/05/12 01:41:38;;;;;;;11.20;8.90;;;15.40;1.00;;;;;;5118778;27;20440;-76
2021/05/12 01:44:09;;;;;;;10.90;9.83;;;15.40;1.00;;;;;;5115522;27;20434;-75
2021/05/12 01:46:36;;;;;;;10.20;9.20;;;15.40;1.00;;;;;;5114016;27;20472;-75
2021/05/12 01:49:02;;;;;;;10.33;9.33;;;15.40;1.00;;;;;;5118183;27;20467;-76
2021/05/12 01:51:29;;;;;;;10.00;9.10;;;15.30;1.00;;;;;;5119813;27;20445;-76
2021/05/12 01:53:55;;;;;;;10.17;9.13;;;15.30;1.00;;;;;;5118359;27;21139;-76
2021/05/12 01:56:23;;;;;;;9.60;8.37;;;15.30;1.00;;;;;;5120195;27;20440;-75
2021/05/12 01:58:49;;;;;;;9.50;8.70;;;15.30;1.00;;;;;;5115377;27;20735;-78
2021/05/12 02:01:16;;;;;;;9.20;8.27;;;15.30;1.00;;;;;;5124377;27;20438;-77
2021/05/12 02:03:42;;;;;;;9.43;8.50;;;15.30;1.00;;;;;;5092981;27;20494;-77
2021/05/12 02:06:08;;;;;;;9.30;8.50;;;15.30;1.00;;;;;;5109937;27;20539;-77
2021/05/12 02:08:34;;;;;;;9.40;8.60;;;15.30;1.00;;;;;;5121565;27;20445;-77
2021/05/12 02:11:03;;;;;;;9.37;8.47;;;15.30;1.00;;;;;;5118957;27;20450;-77
2021/05/12 02:13:31;;;;;;;9.27;8.37;;;15.20;1.00;;;;;;5121180;27;21514;-77
2021/05/12 02:15:58;;;;;;;9.00;8.20;;;15.20;1.00;;;;;;5121000;27;20473;-77
2021/05/12 02:18:25;;;;;;;8.93;8.07;;;15.30;1.00;;;;;;5122617;27;20456;-75
2021/05/12 02:20:51;;;;;;;8.60;7.63;;;15.30;1.00;;;;;;5117443;27;20587;-76
2021/05/12 02:23:20;;;;;;;8.53;7.50;;;15.20;1.00;;;;;;5119356;27;20468;-77
2021/05/12 02:25:46;;;;;;;8.83;7.93;;;15.20;1.00;;;;;;5113438;27;20449;-77
2021/05/12 02:28:13;;;;;;;10.10;9.10;;;15.20;1.00;;;;;;5121785;27;20457;-78
2021/05/12 02:30:41;;;;;;;11.73;8.47;;;15.10;1.00;;;;;;5123028;27;22262;-77
2021/05/12 02:33:09;;;;;;;12.97;9.57;;;15.10;1.00;;;;;;5118797;27;20432;-77
2021/05/12 02:35:36;;;;;;;10.20;9.20;;;15.10;1.00;;;;;;5115593;27;20440;-77
2021/05/12 02:38:03;;;;;;;11.97;10.77;;;15.10;1.00;;;;;;5115233;27;20464;-77
2021/05/12 02:40:30;;;;;;;11.43;10.37;;;15.10;1.00;;;;;;5116766;27;20971;-76
2021/05/12 02:42:58;;;;;;;12.27;11.17;;;15.10;1.00;;;;;;5121706;27;20437;-76
2021/05/12 02:45:25;;;;;;;11.43;10.43;;;15.10;1.00;;;;;;5098383;27;20465;-77
2021/05/12 02:47:59;;;;;;;13.30;12.10;;;15.10;1.00;;;;;;5122114;27;20453;-78
2021/05/12 02:50:27;;;;;;;14.23;13.00;;;15.10;1.00;;;;;;5116486;27;21220;-76
2021/05/12 02:52:54;;;;;;;14.83;13.57;;;15.00;1.00;;;;;;5121143;27;20425;-77
2021/05/12 02:55:23;;;;;;;14.57;13.17;;;15.00;1.00;;;;;;5114585;27;20457;-78
2021/05/12 02:57:49;;;;;;;15.10;13.63;;;15.00;1.00;;;;;;5120648;27;20530;-77
2021/05/12 03:00:17;;;;;;;13.53;12.33;;;15.00;1.00;;;;;;5115037;27;20452;-76
2021/05/12 03:02:44;;;;;;;14.00;12.63;;;15.00;1.00;;;;;;5114855;27;20544;-76
2021/05/12 03:05:12;;;;;;;12.53;11.43;;;15.00;1.00;;;;;;5118025;27;20528;-77
2021/05/12 03:07:38;;;;;;;12.93;11.70;;;15.00;1.00;;;;;;5113288;27;21062;-74
2021/05/12 03:10:07;;;;;;;10.53;9.60;;;15.00;1.00;;;;;;5114702;27;20491;-75
2021/05/12 03:12:33;;;;;;;11.10;9.93;;;15.00;1.00;;;;;;5113740;27;21314;-76
2021/05/12 03:14:59;;;;;;;10.40;9.40;;;15.00;1.00;;;;;;5118907;27;20464;-76
2021/05/12 03:17:25;;;;;;;9.20;8.30;;;15.00;1.00;;;;;;5116698;27;20535;-76
2021/05/12 03:19:52;;;;;;;9.73;8.90;;;15.10;1.00;;;;;;5120381;27;20458;-79
2021/05/12 03:22:19;;;;;;;10.57;7.93;;;15.10;1.00;;;;;;5120537;27;20523;-78
2021/05/12 03:24:45;;;;;;;10.30;9.07;;;15.10;1.00;;;;;;5100125;27;20442;-77
2021/05/12 03:27:13;;;;;;;7.83;7.13;;;15.10;1.00;;;;;;5118980;27;20632;-78
2021/05/12 03:29:39;;;;;;;8.63;7.83;;;15.10;1.00;;;;;;5118819;27;20465;-77
2021/05/12 03:32:06;;;;;;;10.40;8.97;;;15.00;1.00;;;;;;5117206;27;20442;-76
2021/05/12 03:34:32;;;;;;;7.63;6.90;;;15.00;1.00;;;;;;5122744;27;20516;-76
2021/05/12 03:36:58;;;;;;;9.80;7.87;;;14.90;1.00;;;;;;5114476;27;20512;-76
2021/05/12 03:39:25;;;;;;;8.97;8.07;;;14.90;1.00;;;;;;5124087;27;20461;-77
2021/05/12 03:41:52;;;;;;;8.87;7.90;;;14.90;1.00;;;;;;5116880;27;21051;-77
2021/05/12 03:44:18;;;;;;;11.30;8.00;;;14.90;1.00;;;;;;5099194;27;20851;-79
2021/05/12 03:46:45;;;;;;;11.10;8.47;;;15.00;1.00;;;;;;5123908;27;20418;-78
2021/05/12 03:49:11;;;;;;;9.53;8.20;;;15.00;1.00;;;;;;5120905;27;20421;-79
2021/05/12 03:51:38;;;;;;;9.67;8.23;;;15.00;1.00;;;;;;5123336;27;20438;-80
2021/05/12 03:56:51;;;;;;;7.77;6.93;;;15.00;1.00;;;;;;5128923;27;20528;-80
2021/05/12 03:59:17;;;;;;;9.50;8.60;;;15.00;1.00;;;;;;5126749;27;20449;-80
2021/05/12 04:01:43;;;;;;;12.17;7.73;;;15.00;1.00;;;;;;5136311;27;20531;-80
2021/05/12 04:04:11;;;;;;;6.13;5.47;;;15.10;1.00;;;;;;5138366;27;20628;-80
2021/05/12 04:06:38;;;;;;;6.60;6.00;;;15.00;1.00;;;;;;5137579;27;20449;-80
2021/05/12 04:09:05;;;;;;;5.63;5.17;;;15.10;1.00;;;;;;5141853;27;20433;-80
2021/05/12 04:11:31;;;;;;;4.73;4.33;;;15.10;1.00;;;;;;5137809;27;20421;-81
2021/05/12 04:13:58;;;;;;;11.97;5.40;;;15.00;1.00;;;;;;5135886;27;20444;-80
2021/05/12 04:16:26;;;;;;;7.23;4.70;;;15.10;1.00;;;;;;5120587;27;20465;-79
2021/05/12 04:18:52;;;;;;;5.20;4.70;;;15.10;1.00;;;;;;5126902;27;20614;-82
2021/05/12 04:21:19;;;;;;;5.70;4.70;;;15.00;1.00;;;;;;5132203;27;20421;-83
2021/05/12 04:23:45;;;;;;;13.37;6.30;;;15.10;1.00;;;;;;5127123;27;20512;-84
2021/05/12 04:26:11;;;;;;;6.17;5.57;;;15.10;1.00;;;;;;5131556;27;20425;-84
2021/05/12 04:28:39;;;;;;;6.70;6.10;;;15.20;1.00;;;;;;5132342;27;20465;-84
2021/05/12 04:31:07;;;;;;;6.90;6.20;;;15.20;1.00;;;;;;5131193;27;20445;-84
2021/05/12 04:33:35;;;;;;;7.83;6.97;;;15.20;1.00;;;;;;5139244;27;20440;-84
2021/05/12 04:36:02;;;;;;;6.37;5.80;;;15.20;1.00;;;;;;5126515;27;20451;-84
2021/05/12 04:38:29;;;;;;;6.67;5.67;;;15.30;1.00;;;;;;5111493;27;20515;-85
2021/05/12 04:40:59;;;;;;;5.53;4.70;;;15.30;1.00;;;;;;5114089;27;20516;-80
2021/05/12 04:43:25;;;;;;;6.30;5.70;;;15.40;1.00;;;;;;5113755;27;21275;-80
2021/05/12 04:45:52;;;;;;;7.30;5.43;;;15.40;1.00;;;;;;5111914;27;20466;-79
2021/05/12 04:48:19;;;;;;;7.47;6.03;;;15.40;1.00;;;;;;5117009;27;21375;-79
2021/05/12 04:50:48;;;;;;;6.27;5.70;;;15.50;1.00;;;;;;5110262;27;20461;-78
2021/05/12 04:53:17;;;;;;;6.30;5.70;;;15.50;1.00;;;;;;5113251;27;21366;-81
2021/05/12 04:55:44;;;;;;;6.97;6.00;;;15.50;1.00;;;;;;5113330;27;21261;-80
2021/05/12 04:58:10;;;;;;;7.80;6.17;;;15.60;1.00;;;;;;5119831;27;21617;-82
2021/05/12 05:00:36;;;;;;;6.60;6.00;;;15.60;1.00;;;;;;5113533;27;20625;-81
2021/05/12 05:03:03;;;;;;;8.57;6.27;;;15.60;1.00;;;;;;5117965;27;21175;-82
2021/05/12 05:05:31;;;;;;;7.77;5.73;;;15.60;1.00;;;;;;5116988;27;20531;-86
2021/05/12 05:07:58;;;;;;;7.70;6.90;;;15.60;1.00;;;;;;5119651;27;20425;-83
2021/05/12 05:10:24;;;;;;;7.10;6.40;;;15.60;1.00;;;;;;5094513;27;20465;-83
2021/05/12 05:12:51;;;;;;;8.13;7.37;;;15.60;1.00;;;;;;5115200;27;20585;-83
2021/05/12 05:15:17;;;;;;;6.83;6.10;;;15.50;1.00;;;;;;5103954;27;20618;-83
2021/05/12 05:17:44;;;;;;;8.47;7.63;;;15.50;1.00;;;;;;5115912;27;21066;-83
2021/05/12 05:20:12;;;;;;;9.00;8.13;;;15.50;1.00;;;;;;5119346;27;21896;-81
2021/05/12 05:22:39;;;;;;;8.47;7.67;;;15.50;1.00;;;;;;5096488;27;20480;-84
2021/05/12 05:25:07;;;;;;;11.40;7.90;;;15.60;1.00;;;;;;5122568;27;22179;-82
2021/05/12 05:27:34;;;;;;;10.17;9.07;;;15.60;1.00;;;;;;5121151;27;20527;-85
2021/05/12 05:30:00;;;;;;;10.63;9.73;;;15.60;1.00;;;;;;5127469;27;21724;-83
2021/05/12 05:32:27;;;;;;;11.40;9.10;;;15.70;1.00;;;;;;5126579;27;20422;-82
2021/05/12 05:34:53;;;;;;;12.73;11.53;;;15.70;1.00;;;;;;5125092;27;20457;-83
2021/05/12 05:37:23;;;;;;;13.20;12.10;;;15.60;1.00;;;;;;5104606;27;20446;-83
2021/05/12 05:39:50;;;;;;;12.83;11.83;;;15.60;1.00;;;;;;5112091;27;20457;-84
2021/05/12 05:42:16;;;;;;;12.87;11.77;;;15.50;1.00;;;;;;5124765;27;20603;-84
2021/05/12 05:44:43;;;;;;;9.23;8.40;;;15.50;1.00;;;;;;5122215;27;20500;-84
2021/05/12 05:47:09;;;;;;;11.57;10.57;;;15.40;1.00;;;;;;5124526;27;20433;-82
2021/05/12 05:49:35;;;;;;;13.70;12.27;;;15.40;1.00;;;;;;5126472;27;20438;-84
2021/05/12 05:52:02;;;;;;;13.80;12.40;;;15.30;1.00;;;;;;5131118;27;21832;-84
2021/05/12 05:54:28;;;;;;;11.80;10.70;;;15.30;1.00;;;;;;5125434;27;21093;-86
2021/05/12 05:56:55;;;;;;;15.50;13.97;;;15.30;1.00;;;;;;5133136;27;20447;-83
2021/05/12 05:59:21;;;;;;;13.17;12.00;;;15.40;1.00;;;;;;5130936;27;20449;-81
2021/05/12 06:01:48;;;;;;;12.60;11.60;;;15.40;1.00;;;;;;5110817;27;20469;-83
2021/05/12 06:04:14;;;;;;;13.97;12.87;;;15.50;1.00;;;;;;5122005;27;21351;-83
2021/05/12 06:06:40;;;;;;;12.07;11.07;;;15.50;1.00;;;;;;5107756;27;20448;-83
2021/05/12 06:09:08;;;;;;;10.63;9.83;;;15.50;1.00;;;;;;5129616;27;20455;-83
2021/05/12 06:11:35;;;;;;;9.37;8.57;;;15.60;1.00;;;;;;5125550;27;20394;-84
2021/05/12 06:14:03;;;;;;;10.00;9.20;;;15.60;1.00;;;;;;5127973;27;21708;-83
2021/05/12 06:16:29;;;;;;;9.50;8.73;;;15.70;1.00;;;;;;5127972;27;20440;-83
2021/05/12 06:18:56;;;;;;;9.00;8.40;;;15.80;1.00;;;;;;5130765;27;20448;-82
2021/05/12 06:21:23;;;;;;;10.27;9.23;;;16.00;1.00;;;;;;5125291;27;20437;-83
2021/05/12 06:23:49;;;;;;;7.63;6.90;;;16.20;1.00;;;;;;5106459;27;20462;-83
2021/05/12 06:26:17;;;;;;;7.67;6.60;;;16.20;1.00;;;;;;5121006;27;20418;-84
2021/05/12 06:28:44;;;;;;;5.73;5.30;;;16.20;1.00;;;;;;5127809;27;20615;-85
2021/05/12 06:31:12;;;;;;;7.50;5.97;;;16.20;1.00;;;;;;5128148;27;20445;-84
2021/05/12 06:33:41;;;;;;;7.17;5.63;;;16.10;1.00;;;;;;5106631;27;20521;-85
2021/05/12 06:36:09;;;;;;;6.70;5.93;;;16.20;1.00;;;;;;5124177;27;20419;-83
2021/05/12 06:38:35;;;;;;;9.57;8.67;;;16.30;1.00;;;;;;5120361;27;20476;-84
2021/05/12 06:41:03;;;;;;;8.60;7.87;;;16.30;1.00;;;;;;5115402;27;22419;-85
2021/05/12 06:43:29;;;;;;;9.53;8.63;;;16.30;1.00;;;;;;5124602;27;20449;-84
2021/05/12 06:45:56;;;;;;;10.07;9.03;;;16.30;1.00;;;;;;5120030;27;20453;-83
2021/05/12 06:48:23;;;;;;;9.03;8.13;;;16.20;1.00;;;;;;5122881;27;20441;-86
2021/05/12 06:50:50;;;;;;;11.10;10.17;;;16.20;1.00;;;;;;5098226;27;20517;-82
2021/05/12 06:53:25;;;;;;;12.87;11.87;;;16.20;1.00;;;;;;5119768;27;20471;-81
2021/05/12 06:55:52;;;;;;;13.60;12.50;;;16.20;1.00;;;;;;5109464;27;20424;-81
2021/05/12 06:58:18;;;;;;;14.33;13.03;;;16.10;1.00;;;;;;5117008;27;20457;-80
2021/05/12 07:00:44;;;;;;;14.80;13.50;;;16.00;1.00;;;;;;5115728;27;20493;-85
2021/05/12 07:03:10;;;;;;;14.87;13.47;;;16.00;1.00;;;;;;5101188;27;20536;-84
2021/05/12 07:05:37;;;;;;;13.83;12.53;;;16.00;1.00;;;;;;5113529;27;20445;-84
2021/05/12 07:08:04;;;;;;;13.60;12.33;;;16.00;1.00;;;;;;5115932;27;20406;-83
2021/05/12 07:10:32;;;;;;;13.30;12.10;;;15.90;1.00;;;;;;5116739;27;20449;-81
2021/05/12 07:12:58;;;;;;;12.40;11.10;;;16.00;1.00;;;;;;5122054;27;20453;-82
2021/05/12 07:15:27;;;;;;;11.37;10.13;;;15.90;1.00;;;;;;5116921;27;20465;-81
2021/05/12 07:17:56;;;;;;;10.57;9.67;;;16.00;1.00;;;;;;5120359;27;20454;-82
2021/05/12 07:20:22;;;;;;;9.30;8.50;;;16.00;1.00;;;;;;5095481;27;20444;-77
2021/05/12 07:22:49;;;;;;;11.37;10.20;;;16.00;1.00;;;;;;5119814;27;20434;-78
2021/05/12 07:25:16;;;;;;;10.27;9.27;;;16.10;1.00;;;;;;5120218;27;20438;-77
2021/05/12 07:27:43;;;;;;;10.40;9.00;;;16.20;1.00;;;;;;5096329;27;20547;-78
2021/05/12 07:30:10;;;;;;;10.30;8.60;;;16.20;1.00;;;;;;5123047;27;20448;-80
2021/05/12 07:32:36;;;;;;;12.27;11.07;;;16.30;1.00;;;;;;5122853;27;21386;-81
2021/05/12 07:35:03;;;;;;;12.20;10.70;;;16.30;1.00;;;;;;5100708;27;20528;-80
2021/05/12 07:37:30;;;;;;;10.43;9.43;;;16.30;1.00;;;;;;5103585;27;20488;-79
2021/05/12 07:39:58;;;;;;;12.97;11.70;;;16.30;1.00;;;;;;5133310;27;20434;-78
2021/05/12 07:42:26;;;;;;;12.37;10.93;;;16.20;1.00;;;;;;5124685;27;20516;-78
2021/05/12 07:44:52;;;;;;;12.13;11.00;;;16.30;1.00;;;;;;5128491;27;20414;-79
2021/05/12 07:47:18;;;;;;;11.33;10.33;;;16.40;1.00;;;;;;5113473;27;20459;-78
2021/05/12 07:49:44;;;;;;;15.33;11.27;;;16.40;1.00;;;;;;5117100;27;20587;-78
2021/05/12 07:52:13;;;;;;;12.00;10.90;;;16.50;1.00;;;;;;5114067;27;21354;-78
2021/05/12 07:54:40;;;;;;;11.47;10.40;;;16.50;1.00;;;;;;5113766;27;20414;-79
2021/05/12 07:57:07;;;;;;;10.87;9.87;;;16.60;1.00;;;;;;5111315;27;20451;-79
2021/05/12 07:59:33;;;;;;;11.63;10.43;;;16.60;1.00;;;;;;5118030;27;20957;-78
2021/05/12 08:02:01;;;;;;;12.80;10.37;;;16.70;1.00;;;;;;5117269;27;20542;-78
2021/05/12 08:04:28;;;;;;;12.70;11.43;;;16.70;1.00;;;;;;5118371;27;20824;-78
2021/05/12 08:06:54;;;;;;;12.90;9.63;;;16.70;1.00;;;;;;5113080;27;20450;-78
2021/05/12 08:09:21;;;;;;;11.10;9.47;;;16.80;1.00;;;;;;5111188;27;21955;-77
2021/05/12 08:11:47;;;;;;;11.20;10.10;;;16.90;1.00;;;;;;5113067;27;20454;-77
2021/05/12 08:14:14;;;;;;;14.40;11.30;;;16.90;1.00;;;;;;5115234;27;20411;-78
2021/05/12 08:16:41;;;;;;;14.00;10.53;;;16.90;1.00;;;;;;5116817;27;20422;-78
2021/05/12 08:19:07;;;;;;;12.57;11.27;;;16.80;1.00;;;;;;5112378;27;20449;-78
2021/05/12 08:21:34;;;;;;;16.80;15.10;;;16.90;1.00;;;;;;5131260;27;20455;-77
2021/05/12 08:24:00;;;;;;;17.23;15.53;;;17.00;1.00;;;;;;5131620;27;20444;-79
2021/05/12 08:26:27;;;;;;;17.93;16.13;;;16.90;1.00;;;;;;5131707;27;20419;-77
2021/05/12 08:28:54;;;;;;;18.47;16.67;;;16.80;1.00;;;;;;5127209;27;20446;-77
2021/05/12 08:31:21;;;;;;;17.27;15.47;;;16.80;1.00;;;;;;5125932;27;20455;-78
2021/05/12 08:33:47;;;;;;;15.33;13.87;;;16.70;1.00;;;;;;5132724;27;20466;-80
2021/05/12 08:36:39;;;;;;;15.43;13.90;;;16.70;1.00;;;;;;5135876;27;20427;-82
2021/05/12 08:39:07;;;;;;;13.70;12.30;;;16.70;1.00;;;;;;5113658;27;20522;-82
2021/05/12 08:41:35;;;;;;;15.43;13.90;;;16.80;1.00;;;;;;5120767;27;20467;-81
2021/05/12 08:44:11;;;;;;;17.60;15.80;;;16.80;1.00;;;;;;5120816;27;20217;-82
2021/05/12 08:46:40;;;;;;;19.47;16.63;;;16.70;1.00;;;;;;5104915;27;20553;-80
2021/05/12 08:49:17;;;;;;;18.00;16.10;;;16.60;1.00;;;;;;5124498;27;20459;-80
2021/05/12 08:51:45;;;;;;;22.27;19.90;;;16.40;1.00;;;;;;5118859;27;20558;-81
2021/05/12 08:54:14;;;;;;;18.23;16.33;;;16.40;1.00;;;;;;5121541;27;20458;-79
2021/05/12 08:56:41;;;;;;;18.57;16.63;;;16.40;1.00;;;;;;5105797;27;21863;-81
2021/05/12 08:59:08;;;;;;;18.53;16.73;;;16.40;1.00;;;;;;5101754;27;20410;-79
2021/05/12 09:01:34;;;;;;;17.23;15.43;;;16.50;1.00;;;;;;5121046;27;20426;-80
2021/05/12 09:04:03;;;;;;;16.37;14.67;;;16.50;1.00;;;;;;5116842;27;20465;-79
2021/05/12 09:06:31;;;;;;;17.43;15.73;;;16.60;1.00;;;;;;5112583;27;20444;-78
2021/05/12 09:09:01;;;;;;;17.43;14.93;;;16.60;1.00;;;;;;5119165;27;20462;-78
2021/05/12 09:11:28;;;;;;;18.43;15.47;;;16.80;1.00;;;;;;5109581;27;20449;-79
2021/05/12 09:13:55;;;;;;;19.07;15.30;;;16.90;1.00;;;;;;5115787;27;20445;-79
2021/05/12 09:16:22;;;;;;;20.77;17.47;;;16.90;1.00;;;;;;5119913;27;20587;-79
2021/05/12 09:18:59;;;;;;;19.83;17.73;;;17.00;1.00;;;;;;5104942;27;20468;-78
2021/05/12 09:21:41;;;;;;;16.80;15.10;;;17.20;1.00;;;;;;5112750;27;20500;-78
2021/05/12 09:24:18;;;;;;;16.53;14.60;;;17.20;1.00;;;;;;5122198;27;20463;-77
2021/05/12 09:26:46;;;;;;;16.70;15.00;;;17.20;1.00;;;;;;5118892;27;23411;-81
2021/05/12 09:29:22;;;;;;;18.00;14.53;;;17.00;1.00;;;;;;5126032;27;20407;-79
2021/05/12 09:31:48;;;;;;;16.90;15.10;;;17.10;1.00;;;;;;5117202;27;21166;-76
2021/05/12 09:34:15;;;;;;;16.60;14.50;;;17.10;1.00;;;;;;5119912;27;21741;-78
2021/05/12 09:36:42;;;;;;;16.73;14.93;;;17.00;1.00;;;;;;5118812;27;20455;-78
2021/05/12 09:39:15;;;;;;;15.80;14.20;;;17.00;1.00;;;;;;5120268;27;21653;-77
2021/05/12 09:41:43;;;;;;;20.27;15.50;;;16.90;1.00;;;;;;5115867;27;21206;-76
2021/05/12 09:44:10;;;;;;;16.23;14.53;;;16.80;1.00;;;;;;5108918;27;20446;-77
2021/05/12 09:46:37;;;;;;;16.83;15.03;;;16.80;1.00;;;;;;5101757;27;20530;-76
2021/05/12 09:49:14;;;;;;;16.33;14.37;;;16.90;1.00;;;;;;5096061;27;20466;-79
2021/05/12 09:51:43;;;;;;;17.73;14.60;;;17.10;1.00;;;;;;5111626;27;20434;-77
2021/05/12 09:54:11;;;;;;;17.90;15.53;;;17.30;1.00;;;;;;5113102;27;20434;-78
2021/05/12 09:56:40;;;;;;;18.10;16.23;;;17.50;1.00;;;;;;5097507;27;20439;-78
2021/05/12 09:59:08;;;;;;;16.00;14.40;;;17.80;1.00;;;;;;5120984;27;20590;-75
2021/05/12 10:01:46;;;;;;;15.23;13.83;;;18.10;1.00;;;;;;5114251;27;20463;-79
2021/05/12 10:04:21;;;;;;;17.50;15.60;;;18.30;1.00;;;;;;5113358;27;20466;-80
2021/05/12 10:06:50;;;;;;;15.83;14.23;;;18.40;1.00;;;;;;5114021;27;20567;-81
2021/05/12 10:09:21;;;;;;;15.33;13.93;;;18.40;1.00;;;;;;5108466;27;20456;-79
2021/05/12 10:12:00;;;;;;;16.63;14.60;;;18.40;1.00;;;;;;5122860;27;20455;-81
2021/05/12 10:14:27;;;;;;;18.10;16.20;;;18.40;1.00;;;;;;5120603;27;20626;-79
2021/05/12 10:16:53;;;;;;;18.87;15.90;;;18.30;1.00;;;;;;5121709;27;20472;-79
2021/05/12 10:19:19;;;;;;;17.87;15.80;;;18.10;1.00;;;;;;5125161;27;20475;-81
2021/05/12 10:21:47;;;;;;;18.40;16.50;;;17.90;1.00;;;;;;5124724;27;20463;-78
2021/05/12 10:24:14;;;;;;;21.83;18.10;;;17.60;1.00;;;;;;5121984;27;20469;-81
2021/05/12 10:26:42;;;;;;;20.20;17.20;;;17.40;1.00;;;;;;5139357;27;20477;-80
2021/05/12 10:29:08;;;;;;;18.83;16.83;;;17.20;1.00;;;;;;5123663;27;20857;-80
2021/05/12 10:31:36;;;;;;;20.60;18.40;;;17.10;1.00;;;;;;5121453;27;20651;-80
2021/05/12 10:34:03;;;;;;;20.47;18.33;;;17.00;1.00;;;;;;5123965;27;20450;-77
2021/05/12 10:36:30;;;;;;;22.50;18.53;;;17.10;1.00;;;;;;5123288;27;20433;-79
2021/05/12 10:39:00;;;;;;;20.33;17.30;;;17.30;1.00;;;;;;5118621;27;20462;-78
2021/05/12 10:41:40;;;;;;;19.13;17.10;;;17.50;1.00;;;;;;5122648;27;20506;-77
2021/05/12 10:44:13;;;;;;;19.37;16.67;;;17.70;1.00;;;;;;5120229;27;20592;-79
2021/05/12 10:46:59;;;;;;;22.20;18.70;;;17.90;1.00;;;;;;5126547;27;20474;-77
2021/05/12 10:49:28;;;;;;;20.70;17.53;;;18.00;1.00;;;;;;5126058;27;20471;-78
2021/05/12 10:51:54;;;;;;;21.43;18.57;;;17.90;1.00;;;;;;5121335;27;20513;-77
2021/05/12 10:54:42;;;;;;;21.00;17.07;;;17.90;1.00;;;;;;5114095;27;20446;-77
2021/05/12 10:57:10;;;;;;;21.57;19.47;;;17.90;1.00;;;;;;5113661;27;20458;-78
2021/05/12 10:59:41;;;;;;;20.43;17.93;;;18.00;1.00;;;;;;5114344;27;20480;-79
2021/05/12 11:02:08;;;;;;;21.37;17.83;;;18.10;1.00;;;;;;5116307;27;20607;-78
2021/05/12 11:04:35;;;;;;;20.97;18.17;;;18.20;1.00;;;;;;5120664;27;20440;-78
2021/05/12 11:07:03;;;;;;;19.10;17.17;;;18.30;1.00;;;;;;5126897;27;20491;-78
2021/05/12 11:09:49;;;;;;;22.07;19.83;;;18.30;1.00;;;;;;5133372;27;20444;-77
2021/05/12 11:12:23;;;;;;;21.10;18.63;;;18.40;1.00;;;;;;5140229;27;20604;-77
2021/05/12 11:15:10;;;;;;;20.23;17.10;;;18.60;1.00;;;;;;5122111;27;20454;-77
2021/05/12 11:17:53;;;;;;;19.73;17.67;;;18.70;1.00;;;;;;5118045;27;20534;-78
2021/05/12 11:20:24;;;;;;;21.30;18.40;;;18.50;1.00;;;;;;5126182;27;20463;-78
2021/05/12 11:22:51;;;;;;;21.87;18.07;;;18.30;1.00;;;;;;5129511;27;20455;-80
2021/05/12 11:25:29;;;;;;;21.27;18.60;;;18.20;1.00;;;;;;5114641;27;21256;-75
2021/05/12 11:33:57;;;;;;;21.10;17.57;;;18.00;1.00;;;;;;5120391;27;20479;-79
2021/05/12 11:36:32;;;;;;;19.50;17.40;;;18.00;1.00;;;;;;5096320;27;20451;-79
2021/05/12 11:38:58;;;;;;;22.23;17.27;;;18.00;1.00;;;;;;5119774;27;20593;-80
2021/05/12 11:41:27;;;;;;;17.10;15.40;;;18.20;1.00;;;;;;5100876;27;20474;-79
2021/05/12 11:43:55;;;;;;;19.50;17.53;;;18.20;1.00;;;;;;5101815;27;20607;-80
2021/05/12 11:46:26;;;;;;;20.50;18.30;;;18.20;1.00;;;;;;5121463;27;20794;-79
2021/05/12 11:48:54;;;;;;;19.93;17.87;;;18.20;1.00;;;;;;5120927;27;20450;-81
2021/05/12 11:51:38;;;;;;;19.40;17.33;;;18.20;1.00;;;;;;5121347;27;20479;-78
2021/05/12 11:54:06;;;;;;;21.77;18.60;;;18.20;1.00;;;;;;5117223;27;20468;-78
2021/05/12 11:56:41;;;;;;;21.43;19.30;;;18.10;1.00;;;;;;5118215;27;21212;-80
2021/05/12 11:59:07;;;;;;;23.10;19.00;;;18.10;1.00;;;;;;5122916;27;20455;-78
2021/05/12 12:01:38;;;;;;;20.90;18.70;;;18.20;1.00;;;;;;5118335;27;24489;-79
2021/05/12 12:04:12;;;;;;;20.33;17.30;;;18.30;1.00;;;;;;5122634;27;20484;-80
2021/05/12 12:06:41;;;;;;;21.30;19.10;;;18.40;1.00;;;;;;5114040;27;20472;-80
2021/05/12 12:09:07;;;;;;;21.20;19.07;;;18.40;1.00;;;;;;5121340;27;20983;-80
2021/05/12 12:11:34;;;;;;;20.57;18.50;;;18.40;1.00;;;;;;5116798;27;20477;-78
2021/05/12 12:14:03;;;;;;;20.53;18.30;;;18.30;1.00;;;;;;5114821;27;20453;-78
2021/05/12 12:16:30;;;;;;;20.27;18.00;;;18.20;1.00;;;;;;5097965;27;20423;-80
2021/05/12 12:18:57;;;;;;;23.70;19.47;;;18.30;1.00;;;;;;5116855;27;20451;-78
2021/05/12 12:21:28;;;;;;;23.43;20.03;;;18.30;1.00;;;;;;5099166;27;20597;-81
2021/05/12 12:23:57;;;;;;;26.87;20.93;;;18.20;1.00;;;;;;5118496;27;21333;-80
2021/05/12 12:26:25;;;;;;;22.40;20.00;;;18.30;1.00;;;;;;5103958;27;20891;-80
2021/05/12 12:28:58;;;;;;;25.80;20.60;;;18.40;1.00;;;;;;5119961;27;21367;-79
2021/05/12 12:31:26;;;;;;;20.00;18.00;;;18.30;1.00;;;;;;5119937;27;20436;-78
2021/05/12 12:34:15;;;;;;;22.30;20.07;;;18.30;1.00;;;;;;5126601;27;20448;-79
2021/05/12 12:37:03;;;;;;;21.60;19.40;;;18.30;1.00;;;;;;5123761;27;20452;-82
2021/05/12 12:39:49;;;;;;;20.50;18.20;;;18.30;1.00;;;;;;5126433;27;20436;-82
2021/05/12 12:42:22;;;;;;;21.20;18.27;;;18.30;1.00;;;;;;5122412;27;20471;-79
2021/05/12 12:44:49;;;;;;;16.90;15.17;;;18.30;1.00;;;;;;5120522;27;20888;-77
2021/05/12 12:47:17;;;;;;;19.43;17.33;;;18.20;1.00;;;;;;5116498;27;20463;-77
2021/05/12 12:49:47;;;;;;;20.80;16.40;;;18.10;1.00;;;;;;5121969;27;20543;-78
2021/05/12 12:52:20;;;;;;;17.67;15.67;;;18.00;1.00;;;;;;5129163;27;20401;-77
2021/05/12 12:54:50;;;;;;;17.30;15.50;;;17.90;1.00;;;;;;5130312;27;20478;-78
2021/05/12 12:57:17;;;;;;;18.43;15.97;;;17.90;1.00;;;;;;5130488;27;20537;-79